createdAt,value
2022-10-30T00:00:43.163Z,0.00
2022-10-30T00:01:43.127Z,0.00
2022-10-30T00:02:43.129Z,0.00
2022-10-30T00:03:43.124Z,0.00
2022-10-30T00:04:43.060Z,0.00
2022-10-30T00:05:43.056Z,0.00
2022-10-30T00:06:43.032Z,0.00
2022-10-30T00:07:43.020Z,0.00
2022-10-30T00:08:43.019Z,0.00
2022-10-30T00:09:43.028Z,0.00
2022-10-30T00:10:42.993Z,0.00
2022-10-30T00:11:42.971Z,0.00
2022-10-30T00:12:42.951Z,0.00
2022-10-30T00:13:43.027Z,0.00
2022-10-30T00:14:42.957Z,0.00
2022-10-30T00:15:42.943Z,0.00
2022-10-30T00:16:42.905Z,0.00
2022-10-30T00:17:42.893Z,0.00
2022-10-30T00:18:42.988Z,0.00
2022-10-30T00:19:42.854Z,0.00
2022-10-30T00:20:42.854Z,0.00
2022-10-30T00:21:42.825Z,0.00
2022-10-30T00:22:42.842Z,0.00
2022-10-30T00:23:42.796Z,0.00
2022-10-30T00:24:42.829Z,0.00
2022-10-30T00:25:42.806Z,0.00
2022-10-30T00:26:42.769Z,0.00
2022-10-30T00:27:42.773Z,0.00
2022-10-30T00:28:42.740Z,0.00
2022-10-30T00:29:42.719Z,0.00
2022-10-30T00:30:42.709Z,0.00
2022-10-30T00:31:42.724Z,0.00
2022-10-30T00:32:42.701Z,0.00
2022-10-30T00:33:42.693Z,0.00
2022-10-30T00:34:42.669Z,0.00
2022-10-30T00:35:42.812Z,0.00
2022-10-30T00:36:42.643Z,0.00
2022-10-30T00:37:42.621Z,0.00
2022-10-30T00:38:42.604Z,0.00
2022-10-30T00:39:42.585Z,0.00
2022-10-30T00:40:42.600Z,0.00
2022-10-30T00:41:42.572Z,0.00
2022-10-30T00:42:42.582Z,0.00
2022-10-30T00:43:42.541Z,0.00
2022-10-30T00:44:42.532Z,0.00
2022-10-30T00:45:42.523Z,0.00
2022-10-30T00:46:42.503Z,0.00
2022-10-30T00:47:42.483Z,0.00
2022-10-30T00:48:42.490Z,0.00
2022-10-30T00:49:42.464Z,0.00
2022-10-30T00:50:42.476Z,0.00
2022-10-30T00:51:42.437Z,0.00
2022-10-30T00:52:42.432Z,0.00
2022-10-30T00:53:42.407Z,0.00
2022-10-30T00:54:42.408Z,0.00
2022-10-30T00:55:42.410Z,0.00
2022-10-30T00:56:42.375Z,0.00
2022-10-30T00:57:42.363Z,0.00
2022-10-30T00:58:42.355Z,0.00
2022-10-30T00:59:42.346Z,0.00
2022-10-30T01:00:42.388Z,0.00
2022-10-30T01:01:42.624Z,0.00
2022-10-30T01:02:42.348Z,0.00
2022-10-30T01:03:42.291Z,0.00
2022-10-30T01:04:42.297Z,0.00
2022-10-30T01:05:42.249Z,0.00
2022-10-30T01:06:42.262Z,0.00
2022-10-30T01:07:42.227Z,0.00
2022-10-30T01:08:42.287Z,0.00
2022-10-30T01:09:42.211Z,0.00
2022-10-30T01:10:42.190Z,0.00
2022-10-30T01:11:42.189Z,0.00
2022-10-30T01:12:42.169Z,0.00
2022-10-30T01:13:42.178Z,0.00
2022-10-30T01:14:42.137Z,0.00
2022-10-30T01:15:42.139Z,0.00
2022-10-30T01:16:42.112Z,0.00
2022-10-30T01:17:42.102Z,0.00
2022-10-30T01:18:42.088Z,0.00
2022-10-30T01:19:42.070Z,0.00
2022-10-30T01:20:42.102Z,0.00
2022-10-30T01:21:42.044Z,0.00
2022-10-30T01:22:42.038Z,0.00
2022-10-30T01:23:42.019Z,0.00
2022-10-30T01:24:42.011Z,0.00
2022-10-30T01:25:42.012Z,0.00
2022-10-30T01:26:41.982Z,0.00
2022-10-30T01:27:41.963Z,0.00
2022-10-30T01:28:41.964Z,0.00
2022-10-30T01:29:41.935Z,0.00
2022-10-30T01:30:41.942Z,0.00
2022-10-30T01:31:41.921Z,0.00
2022-10-30T01:32:41.902Z,0.00
2022-10-30T01:33:41.886Z,0.00
2022-10-30T01:35:41.855Z,0.00
2022-10-30T01:36:41.878Z,0.00
2022-10-30T01:37:41.834Z,0.00
2022-10-30T01:38:41.824Z,0.00
2022-10-30T01:39:41.805Z,0.00
2022-10-30T01:40:41.799Z,0.00
2022-10-30T01:41:41.795Z,0.00
2022-10-30T01:42:41.777Z,0.00
2022-10-30T01:43:41.756Z,0.00
2022-10-30T01:44:41.743Z,0.00
2022-10-30T01:45:41.718Z,0.00
2022-10-30T01:46:41.729Z,0.00
2022-10-30T01:47:41.710Z,0.00
2022-10-30T01:48:41.689Z,0.00
2022-10-30T01:49:41.670Z,0.00
2022-10-30T01:50:41.686Z,0.00
2022-10-30T01:51:41.654Z,0.00
2022-10-30T01:52:41.627Z,0.00
2022-10-30T01:53:41.619Z,0.00
2022-10-30T01:54:41.642Z,0.00
2022-10-30T01:55:41.610Z,0.00
2022-10-30T01:56:41.589Z,0.00
2022-10-30T01:57:41.559Z,0.00
2022-10-30T01:58:41.559Z,0.00
2022-10-30T01:59:41.548Z,0.00
2022-10-30T02:00:41.589Z,0.00
2022-10-30T02:01:41.633Z,0.00
2022-10-30T02:02:41.570Z,0.00
2022-10-30T02:03:41.506Z,0.00
2022-10-30T02:04:41.473Z,0.00
2022-10-30T02:05:41.473Z,0.00
2022-10-30T02:06:41.442Z,0.00
2022-10-30T02:07:41.425Z,0.00
2022-10-30T02:08:41.418Z,0.00
2022-10-30T02:09:41.430Z,0.00
2022-10-30T02:10:41.402Z,0.00
2022-10-30T02:11:41.374Z,0.00
2022-10-30T02:12:41.365Z,0.00
2022-10-30T02:13:41.345Z,0.00
2022-10-30T02:14:41.341Z,0.00
2022-10-30T02:15:41.343Z,0.00
2022-10-30T02:16:41.315Z,0.00
2022-10-30T02:17:41.294Z,0.00
2022-10-30T02:18:41.326Z,0.00
2022-10-30T02:19:41.268Z,0.00
2022-10-30T02:20:41.282Z,0.00
2022-10-30T02:21:41.248Z,0.00
2022-10-30T02:22:41.272Z,0.00
2022-10-30T02:23:41.219Z,0.00
2022-10-30T02:24:41.208Z,0.00
2022-10-30T02:25:41.229Z,0.00
2022-10-30T02:26:41.218Z,0.00
2022-10-30T02:27:41.159Z,0.00
2022-10-30T02:28:41.158Z,0.00
2022-10-30T02:29:41.136Z,0.00
2022-10-30T02:30:41.141Z,0.00
2022-10-30T02:31:41.108Z,0.00
2022-10-30T02:32:41.115Z,0.00
2022-10-30T02:33:41.080Z,0.00
2022-10-30T02:34:41.079Z,0.00
2022-10-30T02:35:41.082Z,0.00
2022-10-30T02:36:41.046Z,0.00
2022-10-30T02:37:41.047Z,0.00
2022-10-30T02:38:41.019Z,0.00
2022-10-30T02:39:40.994Z,0.00
2022-10-30T02:40:41.010Z,0.00
2022-10-30T02:41:40.998Z,0.00
2022-10-30T02:42:40.961Z,0.00
2022-10-30T02:43:40.972Z,0.00
2022-10-30T02:44:40.942Z,0.00
2022-10-30T02:45:40.952Z,0.00
2022-10-30T02:46:40.933Z,0.00
2022-10-30T02:47:40.903Z,0.00
2022-10-30T02:48:40.891Z,0.00
2022-10-30T02:49:40.865Z,0.00
2022-10-30T02:50:40.883Z,0.00
2022-10-30T02:51:40.835Z,0.00
2022-10-30T02:52:40.851Z,0.00
2022-10-30T02:53:40.814Z,0.00
2022-10-30T02:54:40.806Z,0.00
2022-10-30T02:55:40.816Z,0.00
2022-10-30T02:56:40.774Z,0.00
2022-10-30T02:57:40.767Z,0.00
2022-10-30T02:58:40.757Z,0.00
2022-10-30T02:59:40.735Z,0.00
2022-10-30T03:00:40.749Z,0.00
2022-10-30T03:01:40.778Z,0.00
2022-10-30T03:02:40.761Z,0.00
2022-10-30T03:03:40.679Z,0.00
2022-10-30T03:04:40.671Z,0.00
2022-10-30T03:05:40.686Z,0.00
2022-10-30T03:06:40.656Z,0.00
2022-10-30T03:07:40.665Z,0.00
2022-10-30T03:08:40.620Z,0.00
2022-10-30T03:09:40.599Z,0.00
2022-10-30T03:10:40.618Z,0.00
2022-10-30T03:11:40.576Z,0.00
2022-10-30T03:12:40.600Z,0.00
2022-10-30T03:13:40.546Z,0.00
2022-10-30T03:14:40.531Z,0.00
2022-10-30T03:15:40.558Z,0.00
2022-10-30T03:16:40.523Z,0.00
2022-10-30T03:18:40.511Z,0.00
2022-10-30T03:19:40.467Z,0.00
2022-10-30T03:20:40.494Z,0.00
2022-10-30T03:21:40.473Z,0.00
2022-10-30T03:22:40.432Z,0.00
2022-10-30T03:23:40.419Z,0.00
2022-10-30T03:24:40.420Z,0.00
2022-10-30T03:25:40.410Z,0.00
2022-10-30T03:26:40.402Z,0.00
2022-10-30T03:27:40.360Z,0.00
2022-10-30T03:28:40.371Z,0.00
2022-10-30T03:29:40.337Z,0.00
2022-10-30T03:30:40.362Z,0.00
2022-10-30T03:31:40.312Z,0.00
2022-10-30T03:32:40.291Z,0.00
2022-10-30T03:33:40.293Z,0.00
2022-10-30T03:34:40.263Z,0.00
2022-10-30T03:35:40.275Z,0.00
2022-10-30T03:36:40.244Z,0.00
2022-10-30T03:37:40.234Z,0.00
2022-10-30T03:38:40.211Z,0.00
2022-10-30T03:39:40.224Z,0.00
2022-10-30T03:40:40.218Z,0.00
2022-10-30T03:41:40.184Z,0.00
2022-10-30T03:42:40.173Z,0.00
2022-10-30T03:43:40.165Z,0.00
2022-10-30T03:44:40.135Z,0.00
2022-10-30T03:45:40.149Z,0.00
2022-10-30T03:46:40.125Z,0.00
2022-10-30T03:47:40.099Z,0.00
2022-10-30T03:48:40.077Z,0.00
2022-10-30T03:49:40.087Z,0.00
2022-10-30T03:50:40.079Z,0.00
2022-10-30T03:51:40.044Z,0.00
2022-10-30T03:52:40.025Z,0.00
2022-10-30T03:53:40.023Z,0.00
2022-10-30T03:54:39.998Z,0.00
2022-10-30T03:55:40.018Z,0.00
2022-10-30T03:56:39.969Z,0.00
2022-10-30T03:57:39.972Z,0.00
2022-10-30T03:58:39.972Z,0.00
2022-10-30T03:59:39.939Z,0.00
2022-10-30T04:00:39.939Z,0.00
2022-10-30T04:01:40.110Z,0.00
2022-10-30T04:02:39.889Z,0.00
2022-10-30T04:03:39.881Z,0.00
2022-10-30T04:04:39.881Z,0.00
2022-10-30T04:05:39.874Z,0.00
2022-10-30T04:06:39.865Z,0.00
2022-10-30T04:07:39.842Z,0.00
2022-10-30T04:08:39.811Z,0.00
2022-10-30T04:09:39.802Z,0.00
2022-10-30T04:10:39.857Z,0.00
2022-10-30T04:11:39.781Z,0.00
2022-10-30T04:12:39.780Z,0.00
2022-10-30T04:13:39.753Z,0.00
2022-10-30T04:14:39.733Z,0.00
2022-10-30T04:15:39.742Z,0.00
2022-10-30T04:16:39.721Z,0.00
2022-10-30T04:17:39.701Z,0.00
2022-10-30T04:18:39.680Z,0.00
2022-10-30T04:19:39.674Z,0.00
2022-10-30T04:20:39.690Z,0.00
2022-10-30T04:21:39.648Z,0.00
2022-10-30T04:22:39.634Z,0.00
2022-10-30T04:23:39.615Z,0.00
2022-10-30T04:24:39.616Z,0.00
2022-10-30T04:25:39.606Z,0.00
2022-10-30T04:26:39.576Z,0.00
2022-10-30T04:27:39.575Z,0.00
2022-10-30T04:28:39.546Z,0.00
2022-10-30T04:29:39.543Z,0.00
2022-10-30T04:30:39.550Z,0.00
2022-10-30T04:31:39.515Z,0.00
2022-10-30T04:32:39.515Z,0.00
2022-10-30T04:33:39.486Z,0.00
2022-10-30T04:34:39.483Z,0.00
2022-10-30T04:35:39.482Z,0.00
2022-10-30T04:36:39.436Z,0.00
2022-10-30T04:37:39.434Z,0.00
2022-10-30T04:38:39.442Z,0.00
2022-10-30T04:39:42.357Z,0.00
2022-10-30T04:40:40.407Z,0.00
2022-10-30T04:41:39.405Z,0.00
2022-10-30T04:42:39.368Z,0.00
2022-10-30T04:43:39.355Z,0.00
2022-10-30T04:44:39.329Z,0.00
2022-10-30T04:45:39.347Z,0.00
2022-10-30T04:46:39.330Z,0.00
2022-10-30T04:47:39.356Z,0.00
2022-10-30T04:48:39.291Z,0.00
2022-10-30T04:49:39.279Z,0.00
2022-10-30T04:50:39.279Z,0.00
2022-10-30T04:51:39.248Z,0.00
2022-10-30T04:52:39.230Z,0.00
2022-10-30T04:53:39.232Z,0.00
2022-10-30T04:54:39.202Z,0.00
2022-10-30T04:55:39.207Z,0.00
2022-10-30T04:56:39.189Z,0.00
2022-10-30T04:57:39.171Z,0.00
2022-10-30T04:58:39.140Z,0.00
2022-10-30T04:59:39.162Z,0.00
2022-10-30T05:00:39.135Z,0.00
2022-10-30T05:01:39.247Z,0.00
2022-10-30T05:02:39.232Z,0.00
2022-10-30T05:03:39.092Z,0.00
2022-10-30T05:04:39.063Z,0.00
2022-10-30T05:05:39.076Z,0.00
2022-10-30T05:06:39.050Z,0.00
2022-10-30T05:07:39.043Z,0.00
2022-10-30T05:08:39.013Z,0.00
2022-10-30T05:09:39.003Z,0.00
2022-10-30T05:10:39.005Z,0.00
2022-10-30T05:11:38.983Z,0.00
2022-10-30T05:12:38.964Z,0.00
2022-10-30T05:13:38.955Z,0.00
2022-10-30T05:14:38.932Z,0.00
2022-10-30T05:15:38.975Z,0.00
2022-10-30T05:16:38.924Z,0.00
2022-10-30T05:17:38.917Z,0.00
2022-10-30T05:18:38.889Z,0.00
2022-10-30T05:19:38.880Z,0.00
2022-10-30T05:20:38.883Z,0.00
2022-10-30T05:21:38.846Z,0.00
2022-10-30T05:22:38.826Z,0.00
2022-10-30T05:23:38.815Z,0.00
2022-10-30T05:24:38.809Z,0.00
2022-10-30T05:25:38.806Z,0.00
2022-10-30T05:26:38.776Z,0.00
2022-10-30T05:27:38.770Z,0.00
2022-10-30T05:28:38.746Z,0.00
2022-10-30T05:29:38.746Z,0.00
2022-10-30T05:30:38.737Z,0.00
2022-10-30T05:31:38.708Z,0.00
2022-10-30T05:32:38.713Z,0.00
2022-10-30T05:33:38.687Z,0.00
2022-10-30T05:34:38.666Z,0.00
2022-10-30T05:35:38.679Z,0.00
2022-10-30T05:36:38.658Z,0.00
2022-10-30T05:37:38.643Z,0.00
2022-10-30T05:38:38.618Z,0.00
2022-10-30T05:39:38.623Z,0.00
2022-10-30T05:40:38.610Z,0.00
2022-10-30T05:41:38.588Z,0.00
2022-10-30T05:42:38.581Z,0.00
2022-10-30T05:43:38.559Z,0.00
2022-10-30T05:44:59.403Z,0.00
2022-10-30T05:45:39.540Z,0.00
2022-10-30T05:46:38.508Z,0.00
2022-10-30T05:47:38.501Z,0.00
2022-10-30T05:48:38.495Z,0.00
2022-10-30T05:49:38.470Z,0.00
2022-10-30T05:50:38.479Z,0.00
2022-10-30T05:51:40.583Z,0.00
2022-10-30T05:52:38.428Z,0.00
2022-10-30T05:53:38.440Z,0.00
2022-10-30T05:54:38.415Z,0.00
2022-10-30T05:55:38.422Z,0.00
2022-10-30T05:56:38.393Z,0.00
2022-10-30T05:57:38.390Z,4.00
2022-10-30T05:58:38.352Z,4.00
2022-10-30T05:59:38.339Z,4.00
2022-10-30T06:00:38.357Z,0.00
2022-10-30T06:01:38.449Z,4.00
2022-10-30T06:02:38.358Z,4.00
2022-10-30T06:03:38.284Z,4.00
2022-10-30T06:04:38.272Z,4.00
2022-10-30T06:05:38.283Z,8.00
2022-10-30T06:06:38.233Z,4.00
2022-10-30T06:07:38.243Z,8.00
2022-10-30T06:08:38.228Z,8.00
2022-10-30T06:09:38.205Z,12.00
2022-10-30T06:10:38.211Z,12.00
2022-10-30T06:11:38.204Z,12.00
2022-10-30T06:12:38.163Z,20.00
2022-10-30T06:13:38.165Z,20.00
2022-10-30T06:14:38.134Z,20.00
2022-10-30T06:15:38.138Z,24.00
2022-10-30T06:16:38.122Z,28.00
2022-10-30T06:17:38.108Z,32.00
2022-10-30T06:18:38.108Z,32.00
2022-10-30T06:19:38.076Z,36.00
2022-10-30T06:20:38.100Z,40.00
2022-10-30T06:21:38.076Z,44.00
2022-10-30T06:22:38.046Z,48.00
2022-10-30T06:23:38.026Z,52.00
2022-10-30T06:24:37.997Z,60.00
2022-10-30T06:25:41.389Z,68.00
2022-10-30T06:26:37.987Z,76.00
2022-10-30T06:27:37.973Z,84.00
2022-10-30T06:28:37.947Z,96.00
2022-10-30T06:29:37.959Z,100.00
2022-10-30T06:30:37.955Z,108.00
2022-10-30T06:31:37.907Z,112.00
2022-10-30T06:32:37.903Z,124.00
2022-10-30T06:33:37.886Z,128.00
2022-10-30T06:34:37.896Z,136.00
2022-10-30T06:35:37.908Z,144.00
2022-10-30T06:36:37.873Z,148.00
2022-10-30T06:37:37.851Z,160.00
2022-10-30T06:38:37.818Z,168.00
2022-10-30T06:39:37.802Z,172.00
2022-10-30T06:40:37.811Z,184.00
2022-10-30T06:41:37.780Z,192.00
2022-10-30T06:42:37.785Z,200.00
2022-10-30T06:43:37.803Z,212.00
2022-10-30T06:44:37.766Z,224.00
2022-10-30T06:45:37.753Z,232.00
2022-10-30T06:46:37.712Z,248.00
2022-10-30T06:47:37.731Z,264.00
2022-10-30T06:48:37.692Z,276.00
2022-10-30T06:49:37.669Z,292.00
2022-10-30T06:50:37.663Z,312.00
2022-10-30T06:51:37.653Z,332.00
2022-10-30T06:52:37.626Z,348.00
2022-10-30T06:53:37.614Z,360.00
2022-10-30T06:54:37.597Z,376.00
2022-10-30T06:55:37.625Z,392.00
2022-10-30T06:56:37.587Z,404.00
2022-10-30T06:57:37.564Z,416.00
2022-10-30T06:58:37.545Z,424.00
2022-10-30T06:59:37.557Z,432.00
2022-10-30T07:00:37.662Z,436.00
2022-10-30T07:01:37.577Z,440.00
2022-10-30T07:02:37.500Z,440.00
2022-10-30T07:03:37.496Z,444.00
2022-10-30T07:04:37.456Z,444.00
2022-10-30T07:05:37.486Z,448.00
2022-10-30T07:06:37.440Z,452.00
2022-10-30T07:07:37.450Z,460.00
2022-10-30T07:08:37.412Z,472.00
2022-10-30T07:09:37.440Z,484.00
2022-10-30T07:10:37.399Z,500.00
2022-10-30T07:11:37.400Z,516.00
2022-10-30T07:12:37.358Z,536.00
2022-10-30T07:13:37.350Z,548.00
2022-10-30T07:14:37.333Z,568.00
2022-10-30T07:15:37.347Z,584.00
2022-10-30T07:16:37.302Z,600.00
2022-10-30T07:17:37.315Z,612.00
2022-10-30T07:18:37.300Z,620.00
2022-10-30T07:19:37.278Z,632.00
2022-10-30T07:20:37.280Z,640.00
2022-10-30T07:21:37.239Z,632.00
2022-10-30T07:22:37.242Z,632.00
2022-10-30T07:23:37.215Z,632.00
2022-10-30T07:24:37.213Z,628.00
2022-10-30T07:25:37.208Z,624.00
2022-10-30T07:26:37.173Z,624.00
2022-10-30T07:27:37.173Z,624.00
2022-10-30T07:28:37.160Z,624.00
2022-10-30T07:29:37.142Z,628.00
2022-10-30T07:30:37.137Z,636.00
2022-10-30T07:31:42.198Z,644.00
2022-10-30T07:32:38.104Z,644.00
2022-10-30T07:33:37.087Z,652.00
2022-10-30T07:34:37.068Z,656.00
2022-10-30T07:35:37.084Z,660.00
2022-10-30T07:36:37.055Z,660.00
2022-10-30T07:37:37.046Z,668.00
2022-10-30T07:38:37.017Z,684.00
2022-10-30T07:39:37.027Z,700.00
2022-10-30T07:40:37.007Z,716.00
2022-10-30T07:41:36.976Z,732.00
2022-10-30T07:42:36.958Z,744.00
2022-10-30T07:43:36.947Z,760.00
2022-10-30T07:44:36.945Z,776.00
2022-10-30T07:45:36.968Z,808.00
2022-10-30T07:46:36.933Z,836.00
2022-10-30T07:47:36.972Z,848.00
2022-10-30T07:48:36.930Z,864.00
2022-10-30T07:49:36.898Z,868.00
2022-10-30T07:50:36.878Z,876.00
2022-10-30T07:51:36.845Z,884.00
2022-10-30T07:52:36.829Z,884.00
2022-10-30T07:53:36.819Z,888.00
2022-10-30T07:54:36.810Z,892.00
2022-10-30T07:55:36.808Z,888.00
2022-10-30T07:56:36.789Z,896.00
2022-10-30T07:57:36.790Z,900.00
2022-10-30T07:58:39.957Z,896.00
2022-10-30T07:59:37.833Z,920.00
2022-10-30T08:00:36.761Z,940.00
2022-10-30T08:01:36.782Z,960.00
2022-10-30T08:02:36.785Z,976.00
2022-10-30T08:03:36.684Z,992.00
2022-10-30T08:04:36.701Z,1012.00
2022-10-30T08:05:36.665Z,1040.00
2022-10-30T08:06:36.644Z,1084.00
2022-10-30T08:07:36.638Z,1116.00
2022-10-30T08:08:40.507Z,1156.00
2022-10-30T08:09:37.609Z,1184.00
2022-10-30T08:10:36.604Z,1200.00
2022-10-30T08:11:36.573Z,1200.00
2022-10-30T08:12:36.571Z,1196.00
2022-10-30T08:13:36.544Z,1180.00
2022-10-30T08:14:36.562Z,1160.00
2022-10-30T08:15:36.531Z,1120.00
2022-10-30T08:16:36.509Z,1080.00
2022-10-30T08:17:36.512Z,1044.00
2022-10-30T08:18:36.485Z,1032.00
2022-10-30T08:19:36.568Z,1028.00
2022-10-30T08:20:36.512Z,1028.00
2022-10-30T08:21:36.451Z,1048.00
2022-10-30T08:22:36.440Z,1060.00
2022-10-30T08:23:36.408Z,1060.00
2022-10-30T08:24:36.418Z,1068.00
2022-10-30T08:25:36.396Z,1080.00
2022-10-30T08:26:36.387Z,1096.00
2022-10-30T08:27:36.361Z,1100.00
2022-10-30T08:28:36.349Z,1104.00
2022-10-30T08:29:36.345Z,1104.00
2022-10-30T08:30:36.331Z,1112.00
2022-10-30T08:31:36.307Z,1112.00
2022-10-30T08:32:39.404Z,1124.00
2022-10-30T08:33:36.289Z,1132.00
2022-10-30T08:34:36.267Z,1136.00
2022-10-30T08:36:36.239Z,1148.00
2022-10-30T08:37:36.226Z,1168.00
2022-10-30T08:38:36.226Z,1188.00
2022-10-30T08:39:36.229Z,1216.00
2022-10-30T08:40:36.218Z,1256.00
2022-10-30T08:41:36.171Z,1288.00
2022-10-30T08:42:36.160Z,1304.00
2022-10-30T08:43:36.152Z,1312.00
2022-10-30T08:44:36.142Z,1332.00
2022-10-30T08:45:36.140Z,1328.00
2022-10-30T08:46:36.101Z,1324.00
2022-10-30T08:47:36.092Z,1328.00
2022-10-30T08:48:36.082Z,1344.00
2022-10-30T08:49:36.070Z,1380.00
2022-10-30T08:50:36.069Z,1416.00
2022-10-30T08:51:36.033Z,1440.00
2022-10-30T08:52:36.032Z,1468.00
2022-10-30T08:53:36.042Z,1496.00
2022-10-30T08:54:35.994Z,1508.00
2022-10-30T08:55:35.992Z,1528.00
2022-10-30T08:56:36.023Z,1532.00
2022-10-30T08:57:35.953Z,1552.00
2022-10-30T08:58:36.138Z,1568.00
2022-10-30T08:59:35.924Z,1580.00
2022-10-30T09:00:35.942Z,1592.00
2022-10-30T09:01:35.959Z,1608.00
2022-10-30T09:02:35.979Z,1636.00
2022-10-30T09:03:35.876Z,1652.00
2022-10-30T09:04:35.875Z,1680.00
2022-10-30T09:05:35.876Z,1696.00
2022-10-30T09:06:35.836Z,1728.00
2022-10-30T09:07:35.826Z,1760.00
2022-10-30T09:08:35.816Z,1788.00
2022-10-30T09:09:35.809Z,1812.00
2022-10-30T09:10:35.804Z,1840.00
2022-10-30T09:11:35.766Z,1868.00
2022-10-30T09:12:35.758Z,1892.00
2022-10-30T09:13:35.739Z,1900.00
2022-10-30T09:14:35.743Z,1908.00
2022-10-30T09:15:35.754Z,1928.00
2022-10-30T09:16:35.741Z,1920.00
2022-10-30T09:17:35.689Z,1940.00
2022-10-30T09:18:35.690Z,1948.00
2022-10-30T09:19:35.746Z,1940.00
2022-10-30T09:20:35.690Z,1936.00
2022-10-30T09:21:35.646Z,1928.00
2022-10-30T09:22:35.633Z,1936.00
2022-10-30T09:23:35.629Z,1936.00
2022-10-30T09:24:35.620Z,1944.00
2022-10-30T09:25:35.603Z,1944.00
2022-10-30T09:26:35.601Z,1960.00
2022-10-30T09:27:35.588Z,1960.00
2022-10-30T09:28:35.553Z,1992.00
2022-10-30T09:29:35.540Z,1996.00
2022-10-30T09:30:35.561Z,2004.00
2022-10-30T09:31:35.510Z,2004.00
2022-10-30T09:32:35.502Z,2000.00
2022-10-30T09:33:35.521Z,2008.00
2022-10-30T09:34:35.471Z,2032.00
2022-10-30T09:35:35.481Z,2068.00
2022-10-30T09:36:35.472Z,2152.00
2022-10-30T09:37:35.424Z,2208.00
2022-10-30T09:38:35.437Z,2284.00
2022-10-30T09:39:35.405Z,2360.00
2022-10-30T09:40:35.406Z,2404.00
2022-10-30T09:41:35.374Z,2480.00
2022-10-30T09:42:35.373Z,2564.00
2022-10-30T09:43:35.347Z,2648.00
2022-10-30T09:44:35.350Z,2704.00
2022-10-30T09:45:35.338Z,2756.00
2022-10-30T09:46:35.323Z,2816.00
2022-10-30T09:47:35.296Z,2876.00
2022-10-30T09:48:35.294Z,2896.00
2022-10-30T09:49:35.266Z,2904.00
2022-10-30T09:50:38.835Z,2876.00
2022-10-30T09:51:35.247Z,2852.00
2022-10-30T09:52:35.239Z,2828.00
2022-10-30T09:53:35.225Z,2872.00
2022-10-30T09:54:35.220Z,2948.00
2022-10-30T09:55:35.208Z,2936.00
2022-10-30T09:56:35.187Z,2940.00
2022-10-30T09:57:35.178Z,2952.00
2022-10-30T09:58:35.151Z,2964.00
2022-10-30T09:59:35.136Z,2952.00
2022-10-30T10:00:35.171Z,2988.00
2022-10-30T10:01:35.159Z,3064.00
2022-10-30T10:02:35.249Z,3096.00
2022-10-30T10:03:35.080Z,3148.00
2022-10-30T10:04:35.075Z,3200.00
2022-10-30T10:05:35.108Z,3212.00
2022-10-30T10:06:35.056Z,3264.00
2022-10-30T10:07:35.031Z,3308.00
2022-10-30T10:08:35.034Z,3272.00
2022-10-30T10:09:35.075Z,3388.00
2022-10-30T10:10:35.002Z,3468.00
2022-10-30T10:11:34.973Z,3544.00
2022-10-30T10:12:34.963Z,3620.00
2022-10-30T10:13:34.973Z,3712.00
2022-10-30T10:14:34.941Z,3680.00
2022-10-30T10:15:34.952Z,3856.00
2022-10-30T10:16:34.914Z,3960.00
2022-10-30T10:17:34.912Z,4040.00
2022-10-30T10:18:34.919Z,4140.00
2022-10-30T10:19:34.884Z,4136.00
2022-10-30T10:20:34.882Z,4248.00
2022-10-30T10:21:34.836Z,4272.00
2022-10-30T10:22:34.850Z,4308.00
2022-10-30T10:23:34.817Z,4468.00
2022-10-30T10:24:34.847Z,4580.00
2022-10-30T10:25:34.808Z,4636.00
2022-10-30T10:26:34.778Z,4696.00
2022-10-30T10:27:34.761Z,4708.00
2022-10-30T10:28:36.776Z,4804.00
2022-10-30T10:29:34.746Z,4864.00
2022-10-30T10:30:34.747Z,4912.00
2022-10-30T10:31:34.709Z,4888.00
2022-10-30T10:32:34.719Z,4884.00
2022-10-30T10:33:34.678Z,4956.00
2022-10-30T10:34:34.678Z,5044.00
2022-10-30T10:35:34.669Z,5152.00
2022-10-30T10:36:34.648Z,5224.00
2022-10-30T10:37:34.653Z,5216.00
2022-10-30T10:38:34.625Z,5276.00
2022-10-30T10:39:34.626Z,5432.00
2022-10-30T10:40:34.610Z,5684.00
2022-10-30T10:41:34.570Z,5836.00
2022-10-30T10:42:34.575Z,6032.00
2022-10-30T10:43:34.551Z,6196.00
2022-10-30T10:44:34.559Z,6412.00
2022-10-30T10:45:34.558Z,6600.00
2022-10-30T10:46:34.516Z,7044.00
2022-10-30T10:47:34.504Z,7700.00
2022-10-30T10:48:34.484Z,8676.00
2022-10-30T10:49:37.395Z,17152.00
2022-10-30T10:50:35.474Z,40448.00
2022-10-30T10:51:34.434Z,52064.00
2022-10-30T10:52:34.442Z,52064.00
2022-10-30T10:53:34.418Z,43936.00
2022-10-30T10:54:34.405Z,47648.00
2022-10-30T10:55:34.399Z,47776.00
2022-10-30T10:56:34.386Z,44032.00
2022-10-30T10:57:34.366Z,43616.00
2022-10-30T10:58:34.358Z,44192.00
2022-10-30T10:59:34.339Z,44384.00
2022-10-30T11:00:34.406Z,41920.00
2022-10-30T11:01:34.432Z,42656.00
2022-10-30T11:02:34.393Z,43712.00
2022-10-30T11:03:34.291Z,35680.00
2022-10-30T11:04:34.290Z,47808.00
2022-10-30T11:05:34.270Z,46624.00
2022-10-30T11:06:34.249Z,44224.00
2022-10-30T11:07:34.241Z,49088.00
2022-10-30T11:08:34.221Z,48288.00
2022-10-30T11:09:34.201Z,44768.00
2022-10-30T11:10:34.212Z,45024.00
2022-10-30T11:11:34.191Z,54464.00
2022-10-30T11:12:36.244Z,55520.00
2022-10-30T11:13:34.168Z,45536.00
2022-10-30T11:14:34.162Z,44992.00
2022-10-30T11:15:34.122Z,48320.00
2022-10-30T11:16:34.130Z,48576.00
2022-10-30T11:17:34.094Z,60288.00
2022-10-30T11:18:34.096Z,60032.00
2022-10-30T11:19:34.095Z,64992.00
2022-10-30T11:20:34.066Z,60288.00
2022-10-30T11:21:34.047Z,54656.00
2022-10-30T11:22:34.037Z,58752.00
2022-10-30T11:23:34.026Z,64352.00
2022-10-30T11:24:34.014Z,57472.00
2022-10-30T11:25:34.016Z,35168.00
2022-10-30T11:26:33.992Z,32128.00
2022-10-30T11:27:33.970Z,56256.00
2022-10-30T11:28:33.968Z,28032.00
2022-10-30T11:29:33.960Z,22752.00
2022-10-30T11:30:33.953Z,20256.00
2022-10-30T11:31:33.919Z,12736.00
2022-10-30T11:32:34.013Z,10964.00
2022-10-30T11:33:33.892Z,10716.00
2022-10-30T11:34:33.882Z,9624.00
2022-10-30T11:35:33.894Z,18336.00
2022-10-30T11:36:33.859Z,29120.00
2022-10-30T11:37:33.846Z,39136.00
2022-10-30T11:38:33.833Z,11708.00
2022-10-30T11:39:33.811Z,44608.00
2022-10-30T11:40:33.823Z,38784.00
2022-10-30T11:41:33.809Z,41728.00
2022-10-30T11:42:33.784Z,35136.00
2022-10-30T11:43:33.765Z,23232.00
2022-10-30T11:44:33.756Z,25216.00
2022-10-30T11:45:33.764Z,20736.00
2022-10-30T11:46:33.733Z,16576.00
2022-10-30T11:47:41.442Z,34432.00
2022-10-30T11:48:33.701Z,9872.00
2022-10-30T11:49:33.697Z,11444.00
2022-10-30T11:50:33.702Z,8600.00
2022-10-30T11:51:33.705Z,8944.00
2022-10-30T11:52:33.667Z,9768.00
2022-10-30T11:53:33.642Z,8592.00
2022-10-30T11:54:33.636Z,8948.00
2022-10-30T11:55:33.632Z,8632.00
2022-10-30T11:56:33.594Z,8516.00
2022-10-30T11:57:33.604Z,8568.00
2022-10-30T11:58:33.609Z,10296.00
2022-10-30T11:59:33.564Z,9656.00
2022-10-30T12:00:33.581Z,9156.00
2022-10-30T12:01:33.565Z,8668.00
2022-10-30T12:02:33.634Z,7632.00
2022-10-30T12:03:33.515Z,6964.00
2022-10-30T12:04:33.507Z,9112.00
2022-10-30T12:05:33.497Z,8708.00
2022-10-30T12:06:33.469Z,7848.00
2022-10-30T12:07:33.548Z,7864.00
2022-10-30T12:08:33.443Z,7624.00
2022-10-30T12:09:33.443Z,8460.00
2022-10-30T12:10:33.432Z,8984.00
2022-10-30T12:11:33.410Z,7448.00
2022-10-30T12:12:33.390Z,8996.00
2022-10-30T12:13:33.387Z,7108.00
2022-10-30T12:14:33.368Z,6728.00
2022-10-30T12:15:33.373Z,6376.00
2022-10-30T12:16:33.342Z,6164.00
2022-10-30T12:17:33.374Z,5832.00
2022-10-30T12:18:33.344Z,5612.00
2022-10-30T12:19:33.303Z,5528.00
2022-10-30T12:20:33.308Z,5404.00
2022-10-30T12:21:33.295Z,7420.00
2022-10-30T12:22:33.264Z,6088.00
2022-10-30T12:23:33.255Z,6096.00
2022-10-30T12:24:33.235Z,6104.00
2022-10-30T12:25:33.246Z,6160.00
2022-10-30T12:26:33.231Z,6136.00
2022-10-30T12:27:33.207Z,6272.00
2022-10-30T12:28:33.195Z,6680.00
2022-10-30T12:30:02.829Z,6620.00
2022-10-30T12:30:34.176Z,6664.00
2022-10-30T12:31:33.152Z,6636.00
2022-10-30T12:32:37.084Z,5924.00
2022-10-30T12:33:34.122Z,5648.00
2022-10-30T12:34:33.107Z,5860.00
2022-10-30T12:35:33.117Z,5640.00
2022-10-30T12:36:33.084Z,5892.00
2022-10-30T12:37:33.076Z,5588.00
2022-10-30T12:38:33.052Z,5584.00
2022-10-30T12:39:33.058Z,5504.00
2022-10-30T12:40:33.045Z,5464.00
2022-10-30T12:41:33.023Z,5480.00
2022-10-30T12:42:32.997Z,5468.00
2022-10-30T12:43:33.008Z,5564.00
2022-10-30T12:44:32.982Z,5592.00